createdAt,value
2023-02-11T00:00:14.550Z,101733.09
2023-02-11T00:05:42.359Z,101712.59
2023-02-11T00:11:15.162Z,101705.44
2023-02-11T00:16:42.393Z,101690.16
2023-02-11T00:22:10.417Z,101699.72
2023-02-11T00:27:38.478Z,101689.00
2023-02-11T00:33:06.494Z,101680.19
2023-02-11T00:38:34.500Z,101666.78
2023-02-11T00:44:03.212Z,101657.31
2023-02-11T00:49:30.042Z,101655.47
2023-02-11T00:54:57.612Z,101650.91
2023-02-11T01:00:25.416Z,101655.31
2023-02-11T01:05:52.857Z,101645.63
2023-02-11T01:11:22.225Z,101650.16
2023-02-11T01:16:49.144Z,101638.75
2023-02-11T01:22:16.546Z,101631.13
2023-02-11T01:27:43.948Z,101626.28
2023-02-11T01:33:13.186Z,101609.91
2023-02-11T01:38:41.451Z,101607.69
2023-02-11T01:44:36.403Z,101597.94
2023-02-11T01:50:04.859Z,101573.84
2023-02-11T01:55:51.492Z,101578.88
2023-02-11T02:01:25.743Z,101556.63
2023-02-11T02:07:00.231Z,101560.09
2023-02-11T02:12:28.737Z,101551.13
2023-02-11T02:18:13.832Z,101550.72
2023-02-11T02:24:19.205Z,101529.03
2023-02-11T02:30:16.591Z,101514.50
2023-02-11T02:35:58.631Z,101504.19
2023-02-11T02:41:34.600Z,101490.44
2023-02-11T02:47:01.516Z,101490.69
2023-02-11T02:52:28.433Z,101470.59
2023-02-11T02:58:01.363Z,101474.53
2023-02-11T03:04:01.471Z,101462.75
2023-02-11T03:09:41.035Z,101451.00
2023-02-11T03:15:09.521Z,101444.75
2023-02-11T03:20:38.924Z,101428.00
2023-02-11T03:26:18.983Z,101442.22
2023-02-11T03:32:23.666Z,101442.00
2023-02-11T03:38:00.304Z,101436.53
2023-02-11T03:43:34.887Z,101447.72
2023-02-11T03:49:05.733Z,101439.63
2023-02-11T03:54:33.285Z,101440.94
2023-02-11T04:00:01.239Z,101442.28
2023-02-11T04:05:39.367Z,101426.84
2023-02-11T04:11:07.036Z,101418.25
2023-02-11T04:16:36.065Z,101407.56
2023-02-11T04:22:04.255Z,101408.41
2023-02-11T04:27:32.065Z,101402.00
2023-02-11T04:33:00.015Z,101379.88
2023-02-11T04:38:26.795Z,101375.50
2023-02-11T04:43:54.158Z,101371.75
2023-02-11T04:49:22.008Z,101377.88
2023-02-11T04:54:49.317Z,101376.88
2023-02-11T05:00:45.055Z,101384.56
2023-02-11T05:06:12.535Z,101373.31
2023-02-11T05:11:40.728Z,101362.63
2023-02-11T05:17:10.819Z,101352.63
2023-02-11T05:22:37.899Z,101331.88
2023-02-11T05:28:05.869Z,101320.19
2023-02-11T05:33:33.477Z,101322.41
2023-02-11T05:39:01.085Z,101322.25
2023-02-11T05:44:27.872Z,101314.28
2023-02-11T05:49:54.894Z,101321.38
2023-02-11T05:55:22.336Z,101339.16
2023-02-11T06:00:50.631Z,101324.22
2023-02-11T06:06:19.355Z,101318.75
2023-02-11T06:11:47.098Z,101309.13
2023-02-11T06:17:15.656Z,101310.34
2023-02-11T06:22:42.741Z,101303.75
2023-02-11T06:28:10.940Z,101300.16
2023-02-11T06:33:38.883Z,101306.59
2023-02-11T06:39:06.325Z,101302.81
2023-02-11T06:44:42.166Z,101298.75
2023-02-11T06:50:13.526Z,101296.41
2023-02-11T06:55:41.246Z,101299.03
2023-02-11T07:01:24.142Z,101298.59
2023-02-11T07:06:51.372Z,101288.28
2023-02-11T07:12:18.700Z,101278.50
2023-02-11T07:17:49.867Z,101272.53
2023-02-11T07:23:26.618Z,101263.78
2023-02-11T07:28:58.349Z,101256.94
2023-02-11T07:34:25.784Z,101263.84
2023-02-11T07:39:53.546Z,101257.72
2023-02-11T07:45:21.498Z,101256.25
2023-02-11T07:50:59.624Z,101258.25
2023-02-11T07:56:29.637Z,101262.06
2023-02-11T08:01:57.549Z,101264.44
